createdAt,value
2023-01-29T00:00:29.563Z,99106.20
2023-01-29T00:03:36.024Z,99107.60
2023-01-29T00:06:42.313Z,99109.60
2023-01-29T00:09:48.549Z,99105.80
2023-01-29T00:12:54.901Z,99107.00
2023-01-29T00:16:01.635Z,99114.40
2023-01-29T00:19:07.931Z,99118.60
2023-01-29T00:22:14.078Z,99118.20
2023-01-29T00:25:20.508Z,99123.40
2023-01-29T00:28:26.831Z,99123.20
2023-01-29T00:31:33.096Z,99117.60
2023-01-29T00:34:39.506Z,99122.60
2023-01-29T00:37:45.644Z,99127.60
2023-01-29T00:41:09.654Z,99118.80
2023-01-29T00:44:34.035Z,99120.20
2023-01-29T00:47:40.101Z,99126.00
2023-01-29T00:50:46.435Z,99122.60
2023-01-29T00:53:57.115Z,99123.60
2023-01-29T00:57:03.437Z,99125.20
2023-01-29T01:00:13.912Z,99126.40
2023-01-29T01:03:21.573Z,99133.20
2023-01-29T01:06:27.863Z,99132.40
2023-01-29T01:09:53.541Z,99129.00
2023-01-29T01:13:03.771Z,99133.60
2023-01-29T01:16:15.131Z,99134.60
2023-01-29T01:19:21.388Z,99134.20
2023-01-29T01:22:27.506Z,99141.40
2023-01-29T01:25:33.956Z,99142.60
2023-01-29T01:28:40.315Z,99140.40
2023-01-29T01:31:46.926Z,99145.80
2023-01-29T01:34:54.919Z,99140.40
2023-01-29T01:38:01.145Z,99142.60
2023-01-29T01:41:07.750Z,99145.40
2023-01-29T01:44:44.341Z,99140.40
2023-01-29T01:47:53.838Z,99140.20
2023-01-29T01:51:03.609Z,99138.60
2023-01-29T01:54:13.423Z,99141.80
2023-01-29T01:57:25.187Z,99140.60
2023-01-29T02:00:31.673Z,99145.40
2023-01-29T02:03:59.750Z,99145.00
2023-01-29T02:07:26.368Z,99146.80
2023-01-29T02:10:38.737Z,99148.40
2023-01-29T02:13:45.733Z,99153.00
2023-01-29T02:16:52.291Z,99153.40
2023-01-29T02:20:07.856Z,99156.60
2023-01-29T02:23:39.597Z,99156.60
2023-01-29T02:26:56.080Z,99157.20
2023-01-29T02:30:07.532Z,99157.20
2023-01-29T02:33:22.349Z,99162.40
2023-01-29T02:36:39.476Z,99166.80
2023-01-29T02:39:52.177Z,99167.40
2023-01-29T02:43:04.291Z,99164.00
2023-01-29T02:46:18.083Z,99164.20
2023-01-29T02:49:31.603Z,99177.40
2023-01-29T02:52:49.746Z,99175.60
2023-01-29T02:56:00.511Z,99173.40
2023-01-29T02:59:13.425Z,99177.80
2023-01-29T03:02:23.196Z,99181.40
2023-01-29T03:05:33.970Z,99187.60
2023-01-29T03:08:45.919Z,99191.20
2023-01-29T03:11:58.914Z,99193.60
2023-01-29T03:15:12.715Z,99191.80
2023-01-29T03:18:26.290Z,99193.80
2023-01-29T03:22:00.461Z,99185.00
2023-01-29T03:25:26.992Z,99188.60
2023-01-29T03:28:52.060Z,99190.80
2023-01-29T03:32:05.609Z,99192.80
2023-01-29T03:35:21.035Z,99190.40
2023-01-29T03:38:29.805Z,99194.60
2023-01-29T03:41:39.004Z,99199.60
2023-01-29T03:44:54.621Z,99205.80
2023-01-29T03:48:09.532Z,99204.60
2023-01-29T03:51:22.557Z,99205.00
2023-01-29T03:54:39.681Z,99207.20
2023-01-29T03:57:52.119Z,99200.80
2023-01-29T04:01:01.372Z,99194.00
2023-01-29T04:04:13.693Z,99202.20
2023-01-29T04:07:25.022Z,99201.20
2023-01-29T04:10:33.132Z,99203.20
2023-01-29T04:13:39.721Z,99199.40
2023-01-29T04:16:50.062Z,99202.20
2023-01-29T04:19:56.897Z,99195.40
2023-01-29T04:23:03.155Z,99194.60
2023-01-29T04:26:25.683Z,99193.80
2023-01-29T04:29:41.936Z,99194.00
2023-01-29T04:33:07.579Z,99190.00
2023-01-29T04:36:35.147Z,99196.40
2023-01-29T04:39:50.429Z,99203.40
2023-01-29T04:43:05.356Z,99202.60
2023-01-29T04:46:27.856Z,99205.60
2023-01-29T04:49:41.721Z,99203.80
2023-01-29T04:52:57.572Z,99196.00
2023-01-29T04:56:19.795Z,99199.40
2023-01-29T04:59:32.214Z,99196.40
2023-01-29T05:02:41.321Z,99192.20
2023-01-29T05:05:49.995Z,99190.20
2023-01-29T05:08:57.708Z,99189.40
2023-01-29T05:12:06.904Z,99192.20
2023-01-29T05:15:19.852Z,99189.40
2023-01-29T05:18:26.375Z,99188.40
2023-01-29T05:21:33.768Z,99186.20
2023-01-29T05:24:41.182Z,99189.60
2023-01-29T05:28:06.269Z,99186.80
2023-01-29T05:31:12.524Z,99189.80
2023-01-29T05:34:18.980Z,99189.60
2023-01-29T05:37:25.205Z,99193.40
2023-01-29T05:40:31.472Z,99198.00
2023-01-29T05:43:37.631Z,99196.20
2023-01-29T05:46:44.077Z,99205.80
2023-01-29T05:49:50.399Z,99200.80
2023-01-29T05:53:00.890Z,99205.60
2023-01-29T05:56:08.351Z,99210.60
2023-01-29T05:59:14.753Z,99217.60
2023-01-29T06:02:21.349Z,99215.60
2023-01-29T06:05:27.659Z,99213.60
2023-01-29T06:08:33.864Z,99211.20
2023-01-29T06:11:39.995Z,99216.00
2023-01-29T06:14:46.292Z,99214.20
2023-01-29T06:17:52.640Z,99218.40
2023-01-29T06:21:03.730Z,99220.20
2023-01-29T06:24:11.411Z,99224.80
2023-01-29T06:27:18.003Z,99234.20
2023-01-29T06:30:24.495Z,99241.40
2023-01-29T06:33:31.241Z,99244.60
2023-01-29T06:36:37.638Z,99253.00
2023-01-29T06:39:45.841Z,99243.20
2023-01-29T06:42:52.435Z,99247.00
2023-01-29T06:45:59.518Z,99252.60
2023-01-29T06:49:05.727Z,99258.40
2023-01-29T06:52:12.217Z,99258.60
2023-01-29T06:55:18.524Z,99253.80
2023-01-29T06:58:25.048Z,99250.20
2023-01-29T07:01:36.016Z,99254.00
2023-01-29T07:04:42.903Z,99260.20
2023-01-29T07:07:49.107Z,99255.60
2023-01-29T07:10:55.451Z,99262.60
2023-01-29T07:14:01.637Z,99265.20
2023-01-29T07:17:07.700Z,99266.00
2023-01-29T07:20:15.272Z,99257.00
2023-01-29T07:23:21.876Z,99259.20
2023-01-29T07:26:28.192Z,99252.60
2023-01-29T07:29:34.301Z,99253.60
2023-01-29T07:32:40.557Z,99255.80
2023-01-29T07:35:46.609Z,99252.80
2023-01-29T07:38:53.932Z,99248.60
2023-01-29T07:42:00.501Z,99248.40
2023-01-29T07:45:08.225Z,99255.20
2023-01-29T07:48:16.059Z,99244.40
2023-01-29T07:51:22.487Z,99248.40
2023-01-29T07:54:29.041Z,99249.00
2023-01-29T07:57:35.299Z,99260.00
2023-01-29T08:00:41.851Z,99267.60
2023-01-29T08:03:50.555Z,99264.40
2023-01-29T08:06:57.485Z,99265.00
2023-01-29T08:10:04.454Z,99264.60
2023-01-29T08:13:11.061Z,99263.20
2023-01-29T08:16:17.837Z,99266.20
2023-01-29T08:19:24.493Z,99268.20
2023-01-29T08:22:30.594Z,99273.60
2023-01-29T08:25:37.527Z,99271.20
2023-01-29T08:28:43.809Z,99276.80
2023-01-29T08:31:50.331Z,99276.60
2023-01-29T08:34:57.351Z,99274.40
2023-01-29T08:38:05.249Z,99280.40
2023-01-29T08:41:12.978Z,99281.40
2023-01-29T08:44:19.933Z,99287.60
2023-01-29T08:47:28.059Z,99288.40
2023-01-29T08:50:35.635Z,99297.40
2023-01-29T08:53:42.065Z,99295.80
2023-01-29T08:56:48.910Z,99306.80
2023-01-29T08:59:55.268Z,99307.80
2023-01-29T09:03:01.671Z,99302.20
2023-01-29T09:06:09.979Z,99301.80
2023-01-29T09:09:16.784Z,99309.80
2023-01-29T09:12:22.923Z,99311.40
2023-01-29T09:15:29.946Z,99310.00
2023-01-29T09:18:37.192Z,99316.20
2023-01-29T09:21:43.617Z,99305.80
2023-01-29T09:24:50.108Z,99313.40
2023-01-29T09:27:59.224Z,99313.00
2023-01-29T09:31:06.261Z,99313.60
2023-01-29T09:34:12.920Z,99310.00
2023-01-29T09:37:21.091Z,99313.20
2023-01-29T09:40:33.376Z,99318.00
2023-01-29T09:43:48.605Z,99323.80
2023-01-29T09:46:57.333Z,99327.80
2023-01-29T09:50:15.819Z,99323.00
2023-01-29T09:53:27.285Z,99326.00
2023-01-29T09:56:33.980Z,99324.00
2023-01-29T09:59:40.633Z,99328.80
2023-01-29T10:03:13.660Z,99321.40
2023-01-29T10:06:30.476Z,99320.00
2023-01-29T10:09:51.043Z,99324.20
2023-01-29T10:13:06.484Z,99328.00
2023-01-29T10:16:34.376Z,99330.60
2023-01-29T10:20:03.744Z,99320.60
2023-01-29T10:23:23.399Z,99320.20
2023-01-29T10:26:30.524Z,99323.20
2023-01-29T10:35:36.216Z,99323.40
2023-01-29T10:38:59.718Z,99317.80
2023-01-29T10:42:27.312Z,99322.00
2023-01-29T10:45:47.848Z,99315.20
2023-01-29T10:49:41.512Z,99304.60
2023-01-29T10:53:08.994Z,99294.40
2023-01-29T10:56:51.900Z,99285.00
2023-01-29T11:00:15.483Z,99291.20
2023-01-29T11:03:37.225Z,99286.80
2023-01-29T11:06:47.659Z,99281.20
2023-01-29T11:10:05.918Z,99276.60
2023-01-29T11:13:19.891Z,99269.40
2023-01-29T11:16:30.747Z,99256.00
2023-01-29T11:19:55.944Z,99247.60
2023-01-29T11:23:06.719Z,99250.20
2023-01-29T11:26:22.623Z,99242.60
2023-01-29T11:29:54.806Z,99232.20
2023-01-29T11:33:22.336Z,99234.60
2023-01-29T11:36:40.531Z,99228.40
2023-01-29T11:39:59.858Z,99224.00
2023-01-29T11:43:29.241Z,99218.40
2023-01-29T11:46:41.684Z,99214.40
2023-01-29T11:50:02.803Z,99210.80
2023-01-29T11:53:28.508Z,99210.20
2023-01-29T11:56:45.908Z,99206.80
2023-01-29T11:59:59.053Z,99204.80
2023-01-29T12:03:25.041Z,99202.20
2023-01-29T12:06:48.199Z,99195.00
2023-01-29T12:10:00.262Z,99200.20
2023-01-29T12:13:19.374Z,99194.20
2023-01-29T12:16:34.707Z,99191.80
2023-01-29T12:19:49.534Z,99191.00
2023-01-29T12:23:15.123Z,99188.80
2023-01-29T12:26:33.317Z,99186.20
2023-01-29T12:29:54.905Z,99187.80
2023-01-29T12:33:27.729Z,99188.40
2023-01-29T12:43:28.752Z,99179.80
2023-01-29T12:46:50.876Z,99170.40
2023-01-29T12:50:08.276Z,99173.60
2023-01-29T12:53:34.999Z,99165.40
2023-01-29T12:56:49.152Z,99157.60
2023-01-29T13:00:06.974Z,99145.80
2023-01-29T13:03:48.214Z,99135.40
2023-01-29T13:07:12.180Z,99135.80
2023-01-29T13:10:36.746Z,99126.40
2023-01-29T13:13:54.342Z,99120.60
2023-01-29T13:17:16.240Z,99120.20
2023-01-29T13:20:37.644Z,99110.40
2023-01-29T13:23:50.858Z,99109.00
2023-01-29T13:26:59.498Z,99105.60
2023-01-29T13:30:10.727Z,99107.80
2023-01-29T13:33:26.977Z,99101.00
2023-01-29T13:36:38.992Z,99090.60
2023-01-29T13:39:53.953Z,99088.80
2023-01-29T13:43:05.213Z,99100.00
2023-01-29T13:46:21.576Z,99082.40
2023-01-29T13:49:43.864Z,99089.60
2023-01-29T13:53:02.239Z,99092.00
2023-01-29T13:56:59.463Z,99091.60
2023-01-29T14:00:33.498Z,99091.80
2023-01-29T14:04:06.790Z,99098.00
2023-01-29T14:07:52.499Z,99105.60
2023-01-29T14:11:38.010Z,99109.20
2023-01-29T14:15:27.629Z,99111.00
2023-01-29T14:18:38.508Z,99113.40
2023-01-29T14:21:53.653Z,99115.00
2023-01-29T14:25:07.044Z,99114.80
2023-01-29T14:28:24.863Z,99123.40
2023-01-29T14:31:50.913Z,99122.80
2023-01-29T14:35:04.736Z,99121.20
2023-01-29T14:38:17.395Z,99130.40
2023-01-29T14:41:33.592Z,99124.80
2023-01-29T14:45:23.204Z,99128.00
2023-01-29T14:48:49.671Z,99120.20
2023-01-29T14:52:00.111Z,99134.20
2023-01-29T14:55:17.392Z,99136.00
2023-01-29T14:58:35.776Z,99131.00
2023-01-29T15:01:53.458Z,99130.60
2023-01-29T15:05:08.680Z,99127.40
2023-01-29T15:08:30.209Z,99127.20
2023-01-29T15:11:50.055Z,99119.20
2023-01-29T15:15:38.265Z,99115.00
2023-01-29T15:18:49.325Z,99120.80
2023-01-29T15:22:14.831Z,99114.60
2023-01-29T15:25:25.199Z,99110.80
2023-01-29T15:28:36.452Z,99116.00
2023-01-29T15:31:47.067Z,99118.20
2023-01-29T15:35:00.679Z,99119.40
2023-01-29T15:38:19.509Z,99117.20
2023-01-29T15:41:27.722Z,99120.40
2023-01-29T15:44:36.161Z,99122.80
2023-01-29T15:47:48.954Z,99123.20
2023-01-29T15:50:59.847Z,99122.20
2023-01-29T15:54:15.983Z,99121.40
2023-01-29T15:57:37.665Z,99126.40
2023-01-29T16:00:56.453Z,99127.40
2023-01-29T16:04:06.317Z,99131.00
2023-01-29T16:07:15.746Z,99129.20
2023-01-29T16:10:27.067Z,99137.00
2023-01-29T16:13:41.241Z,99136.80
2023-01-29T16:16:49.695Z,99138.80
2023-01-29T16:20:06.615Z,99138.00
2023-01-29T16:23:25.463Z,99140.80
2023-01-29T16:26:39.569Z,99142.60
2023-01-29T16:29:48.513Z,99145.40
2023-01-29T16:33:02.222Z,99152.40
2023-01-29T16:36:19.284Z,99159.20
2023-01-29T16:39:31.042Z,99158.20
2023-01-29T16:42:40.902Z,99163.00
2023-01-29T16:46:14.811Z,99163.60
2023-01-29T16:49:52.860Z,99161.60
2023-01-29T16:53:07.161Z,99165.40
2023-01-29T16:56:15.943Z,99160.20
2023-01-29T16:59:32.500Z,99159.20
2023-01-29T17:02:43.357Z,99157.80
2023-01-29T17:05:52.984Z,99161.80
2023-01-29T17:09:04.046Z,99164.40
2023-01-29T17:12:21.406Z,99159.40
2023-01-29T17:15:47.704Z,99163.00
2023-01-29T17:18:56.373Z,99160.80
2023-01-29T17:22:08.593Z,99153.60
2023-01-29T17:25:20.180Z,99150.60
2023-01-29T17:28:31.217Z,99142.60
2023-01-29T17:31:39.533Z,99137.00
2023-01-29T17:34:48.260Z,99135.40
2023-01-29T17:37:56.513Z,99136.20
2023-01-29T17:41:11.292Z,99134.80
2023-01-29T17:44:19.497Z,99135.60
2023-01-29T17:47:28.518Z,99128.80
2023-01-29T17:50:39.729Z,99126.40
2023-01-29T17:53:47.861Z,99120.60
2023-01-29T17:56:58.422Z,99119.60
2023-01-29T18:00:11.201Z,99114.60
2023-01-29T18:03:20.558Z,99118.60
2023-01-29T18:06:33.696Z,99109.80
2023-01-29T18:09:43.531Z,99112.80
2023-01-29T18:12:51.750Z,99108.20
2023-01-29T18:16:00.050Z,99106.00
2023-01-29T18:19:16.482Z,99108.40
2023-01-29T18:22:24.730Z,99103.00
2023-01-29T18:25:33.193Z,99099.60
2023-01-29T18:28:43.552Z,99101.20
2023-01-29T18:31:52.705Z,99093.80
2023-01-29T18:35:01.299Z,99088.60
2023-01-29T18:38:09.109Z,99088.40
2023-01-29T18:41:17.093Z,99090.60
2023-01-29T18:44:25.831Z,99092.80
2023-01-29T18:47:34.032Z,99096.20
2023-01-29T18:50:42.759Z,99093.00
2023-01-29T18:53:55.225Z,99089.00
2023-01-29T18:57:06.302Z,99090.20
2023-01-29T19:00:22.506Z,99093.20
2023-01-29T19:03:32.596Z,99090.60
2023-01-29T19:06:41.752Z,99095.00
2023-01-29T19:09:51.294Z,99096.40
2023-01-29T19:12:59.996Z,99098.00
2023-01-29T19:16:12.792Z,99089.40
2023-01-29T19:19:21.229Z,99084.80
2023-01-29T19:22:30.776Z,99096.20
2023-01-29T19:25:43.904Z,99098.20
2023-01-29T19:28:53.544Z,99093.40
2023-01-29T19:32:02.134Z,99093.00
2023-01-29T19:35:12.207Z,99088.00
2023-01-29T19:38:21.406Z,99087.20
2023-01-29T19:41:31.170Z,99087.80
2023-01-29T19:44:39.051Z,99083.40
2023-01-29T19:47:47.986Z,99084.60
2023-01-29T19:51:04.753Z,99081.60
2023-01-29T19:54:14.991Z,99084.00
2023-01-29T19:57:23.497Z,99083.40
2023-01-29T20:00:32.204Z,99085.60
2023-01-29T20:03:42.241Z,99086.80
2023-01-29T20:06:51.061Z,99086.80
2023-01-29T20:10:01.352Z,99087.20
2023-01-29T20:13:10.488Z,99083.40
2023-01-29T20:16:19.494Z,99084.20
2023-01-29T20:19:27.733Z,99078.20
2023-01-29T20:22:36.269Z,99083.00
2023-01-29T20:25:44.681Z,99083.20
2023-01-29T20:28:50.853Z,99076.20
2023-01-29T20:32:00.713Z,99068.60
2023-01-29T20:35:10.877Z,99060.00
2023-01-29T20:38:19.151Z,99050.40
2023-01-29T20:41:28.857Z,99036.20
2023-01-29T20:44:35.607Z,99043.60
2023-01-29T20:47:43.702Z,99040.40
2023-01-29T20:50:51.992Z,99057.80
2023-01-29T20:54:00.639Z,99056.40
2023-01-29T20:57:10.650Z,99053.20
2023-01-29T21:00:26.821Z,99058.80
2023-01-29T21:03:36.088Z,99055.60
2023-01-29T21:06:45.528Z,99064.00
2023-01-29T21:09:54.354Z,99059.40
2023-01-29T21:13:02.820Z,99065.80
2023-01-29T21:16:12.163Z,99073.00
2023-01-29T21:19:21.435Z,99073.00
2023-01-29T21:22:30.457Z,99075.20
2023-01-29T21:25:43.141Z,99074.40
2023-01-29T21:28:55.539Z,99067.00
2023-01-29T21:32:04.484Z,99064.40
2023-01-29T21:35:13.964Z,99070.80
2023-01-29T21:38:21.767Z,99065.00
2023-01-29T21:41:43.571Z,99069.20
2023-01-29T21:44:51.381Z,99068.00
2023-01-29T21:47:59.523Z,99073.40
2023-01-29T21:51:07.807Z,99073.00
2023-01-29T21:54:16.344Z,99075.60
2023-01-29T21:57:26.544Z,99079.20
2023-01-29T22:00:34.866Z,99082.40
2023-01-29T22:03:44.166Z,99075.60
2023-01-29T22:06:54.058Z,99066.40
2023-01-29T22:10:02.345Z,99065.60
2023-01-29T22:13:10.416Z,99058.20
2023-01-29T22:16:18.195Z,99056.60
2023-01-29T22:19:29.425Z,99055.40
2023-01-29T22:22:37.282Z,99042.00
2023-01-29T22:25:45.574Z,99037.40
2023-01-29T22:28:53.600Z,99029.40
2023-01-29T22:32:01.959Z,99028.80
2023-01-29T22:35:12.178Z,99027.60
2023-01-29T22:38:20.515Z,99022.60
2023-01-29T22:41:28.527Z,99022.20
2023-01-29T22:44:36.592Z,99016.80
2023-01-29T22:51:09.627Z,99004.60
2023-01-29T22:54:17.851Z,99007.40
2023-01-29T22:57:25.924Z,98999.00
2023-01-29T23:00:33.929Z,98995.80
2023-01-29T23:03:42.119Z,98992.60
2023-01-29T23:06:49.993Z,98986.00
2023-01-29T23:09:58.152Z,98984.80
2023-01-29T23:13:06.060Z,98983.80
2023-01-29T23:16:15.098Z,98978.00
2023-01-29T23:19:23.385Z,98973.40
2023-01-29T23:22:31.358Z,98968.40
2023-01-29T23:25:48.862Z,98957.20
2023-01-29T23:28:56.939Z,98959.00
2023-01-29T23:32:05.202Z,98954.20
2023-01-29T23:35:13.991Z,98951.40
2023-01-29T23:38:21.898Z,98951.80
2023-01-29T23:41:29.920Z,98954.00
2023-01-29T23:44:37.982Z,98952.40
2023-01-29T23:47:45.859Z,98943.20
2023-01-29T23:50:54.610Z,98938.80
2023-01-29T23:54:03.363Z,98940.00
2023-01-29T23:57:11.241Z,98932.20
